Time;durP1;ratioP1;P1;durP2;ratioP2;P2;SDS_P1;SDS_P2;PMS_P1;PMS_P2;Temp;Humidity;BMP_temperature;BMP_pressure;BME280_temperature;BME280_humidity;BME280_pressure;Samples;Min_cycle;Max_cycle;Signal;HPM_P1;HPM_P2
2023/09/08 00:02:23;;;;;;;8.55;5.80;;;;;;;24.99;51.05;101894.38;5089362;27;96907;-70
2023/09/08 00:04:50;;;;;;;10.20;5.78;;;;;;;24.94;51.68;101883.06;5088796;27;99139;-70
2023/09/08 00:07:16;;;;;;;12.43;6.00;;;;;;;24.90;51.43;101878.84;5092629;27;97773;-69
2023/09/08 00:09:42;;;;;;;7.40;6.18;;;;;;;24.92;51.51;101883.16;5090031;27;96777;-70
2023/09/08 00:12:10;;;;;;;13.20;6.28;;;;;;;24.94;51.50;101880.34;5091602;27;96811;-70
2023/09/08 00:14:37;;;;;;;8.95;6.10;;;;;;;24.86;51.58;101878.19;5091238;27;97867;-70
2023/09/08 00:17:04;;;;;;;11.25;6.25;;;;;;;24.94;51.61;101881.19;5088638;27;98814;-71
2023/09/08 00:19:32;;;;;;;8.85;5.80;;;;;;;24.79;52.48;101876.94;5090257;27;96973;-70
2023/09/08 00:21:59;;;;;;;10.85;6.63;;;;;;;24.70;53.11;101883.06;5091186;27;97128;-70
2023/09/08 00:24:25;;;;;;;10.52;5.90;;;;;;;24.49;53.45;101874.75;5091399;27;98869;-70
2023/09/08 00:26:52;;;;;;;10.57;6.07;;;;;;;24.65;52.78;101869.03;5091371;27;97776;-70
2023/09/08 00:29:20;;;;;;;10.63;6.18;;;;;;;24.55;53.22;101868.00;5084713;27;96808;-70
2023/09/08 00:31:46;;;;;;;8.68;6.28;;;;;;;24.67;52.11;101872.50;5097222;27;97203;-70
2023/09/08 00:34:12;;;;;;;10.50;5.90;;;;;;;24.70;52.08;101868.69;5094930;27;98835;-71
2023/09/08 00:36:39;;;;;;;9.38;6.25;;;;;;;24.69;51.83;101870.50;5094743;27;99076;-71
2023/09/08 00:39:08;;;;;;;10.82;6.53;;;;;;;24.54;52.09;101871.72;5096831;27;96888;-71
2023/09/08 00:41:35;;;;;;;9.38;6.20;;;;;;;24.59;51.98;101873.09;5098657;27;97336;-71
2023/09/08 00:44:01;;;;;;;8.98;6.10;;;;;;;24.41;52.54;101868.22;5104603;27;101569;-70
2023/09/08 00:46:30;;;;;;;13.98;6.70;;;;;;;24.67;51.25;101863.53;5095891;27;99065;-70
2023/09/08 00:48:57;;;;;;;10.30;6.43;;;;;;;24.69;51.16;101869.66;5103958;27;97591;-69
2023/09/08 00:51:23;;;;;;;8.27;5.80;;;;;;;24.63;51.28;101871.84;5097597;27;96784;-70
2023/09/08 00:53:50;;;;;;;10.52;6.32;;;;;;;24.58;51.51;101873.19;5103490;27;99757;-69
2023/09/08 00:56:16;;;;;;;8.88;6.45;;;;;;;24.41;51.84;101870.94;5093709;27;99167;-70
2023/09/08 00:58:43;;;;;;;10.27;6.45;;;;;;;24.50;51.89;101870.22;5094391;27;96960;-70
2023/09/08 01:01:10;;;;;;;16.73;6.63;;;;;;;24.48;51.82;101869.47;5094349;27;97174;-69
2023/09/08 01:03:37;;;;;;;10.00;6.53;;;;;;;24.35;52.58;101861.41;5093546;27;101403;-70
2023/09/08 01:06:04;;;;;;;10.60;6.25;;;;;;;24.31;52.61;101870.75;5093759;27;98822;-71
2023/09/08 01:08:31;;;;;;;14.05;6.47;;;;;;;24.25;52.91;101865.81;5093675;27;96751;-70
2023/09/08 01:10:58;;;;;;;12.25;6.55;;;;;;;24.11;54.06;101874.03;5093306;27;97584;-71
2023/09/08 01:13:24;;;;;;;10.63;6.57;;;;;;;24.31;53.30;101864.47;5094871;27;102166;-70
2023/09/08 01:15:51;;;;;;;9.20;6.50;;;;;;;24.20;54.05;101865.31;5093723;27;99117;-71
2023/09/08 01:18:17;;;;;;;11.27;6.03;;;;;;;24.02;54.53;101862.13;5094981;27;97163;-71
2023/09/08 01:21:14;;;;;;;11.55;6.43;;;;;;;24.03;54.61;101861.09;5094923;27;96920;-70
2023/09/08 01:23:57;;;;;;;16.23;7.53;;;;;;;24.04;54.19;101857.44;5093466;27;99252;-70
2023/09/08 01:26:30;;;;;;;11.95;6.95;;;;;;;24.00;53.81;101853.25;5089076;27;98971;-71
2023/09/08 01:28:57;;;;;;;12.57;6.93;;;;;;;23.99;53.42;101847.97;5092504;27;97212;-71
2023/09/08 01:31:24;;;;;;;9.52;6.55;;;;;;;24.13;52.65;101851.38;5095486;27;97067;-70
2023/09/08 01:33:51;;;;;;;9.90;6.50;;;;;;;24.18;52.52;101854.56;5092912;27;98130;-71
2023/09/08 01:36:18;;;;;;;9.57;6.47;;;;;;;24.29;51.69;101845.69;5091887;27;99029;-70
2023/09/08 01:38:44;;;;;;;9.38;6.60;;;;;;;24.22;51.74;101849.81;5093450;27;96770;-70
2023/09/08 01:41:11;;;;;;;9.90;6.35;;;;;;;24.26;51.24;101847.78;5088304;27;96898;-70
2023/09/08 01:43:38;;;;;;;10.80;6.82;;;;;;;24.37;51.15;101847.81;5093267;27;98956;-71
2023/09/08 01:46:05;;;;;;;10.50;7.15;;;;;;;24.36;51.03;101846.06;5094072;27;98783;-69
2023/09/08 01:48:31;;;;;;;9.73;6.80;;;;;;;24.31;50.97;101850.97;5093371;27;96866;-70
2023/09/08 01:50:57;;;;;;;11.65;6.82;;;;;;;24.38;50.69;101842.28;5092028;27;98699;-69
2023/09/08 01:53:24;;;;;;;13.52;7.38;;;;;;;24.41;50.60;101841.22;5096279;27;99120;-70
2023/09/08 01:55:50;;;;;;;11.25;6.55;;;;;;;24.27;51.01;101844.09;5090489;27;98940;-69
2023/09/08 02:02:04;;;;;;;12.82;7.43;;;;;;;24.19;51.22;101839.28;5037084;27;98829;-70
2023/09/08 02:04:30;;;;;;;12.57;7.90;;;;;;;24.08;51.68;101833.78;5029867;27;98731;-69
2023/09/08 02:06:57;;;;;;;10.73;7.40;;;;;;;24.18;51.35;101835.66;5033084;28;97954;-69
2023/09/08 02:09:31;;;;;;;25.50;7.75;;;;;;;24.04;51.67;101830.44;5029724;27;97152;-69
2023/09/08 02:11:58;;;;;;;11.20;7.45;;;;;;;24.08;51.46;101831.09;5031781;27;96915;-70
2023/09/08 02:14:24;;;;;;;8.75;6.65;;;;;;;24.00;51.62;101828.97;5031207;27;99362;-70
2023/09/08 02:16:50;;;;;;;10.23;7.60;;;;;;;24.00;51.75;101830.78;5031962;27;99081;-70
2023/09/08 02:19:18;;;;;;;15.30;7.22;;;;;;;23.95;52.06;101824.88;5027949;27;96803;-71
2023/09/08 02:21:44;;;;;;;10.57;6.80;;;;;;;23.87;52.00;101829.97;5032827;27;97099;-70
2023/09/08 02:24:11;;;;;;;15.13;7.57;;;;;;;24.06;51.70;101831.19;5030232;27;98946;-71
2023/09/08 02:26:38;;;;;;;8.52;6.65;;;;;;;24.08;51.91;101833.78;5026558;27;99258;-70
2023/09/08 02:29:05;;;;;;;12.80;6.85;;;;;;;24.11;51.72;101834.41;5028163;27;96861;-71
2023/09/08 02:31:31;;;;;;;13.30;7.15;;;;;;;24.13;51.60;101826.19;5031862;27;97027;-71
2023/09/08 02:33:58;;;;;;;10.60;7.43;;;;;;;24.04;51.83;101833.13;5030838;27;101197;-71
2023/09/08 02:36:26;;;;;;;10.90;7.07;;;;;;;24.07;51.78;101832.91;5030337;27;99103;-70
2023/09/08 02:38:52;;;;;;;12.40;6.90;;;;;;;24.04;51.80;101821.47;5027257;27;96752;-70
2023/09/08 02:41:19;;;;;;;12.38;7.20;;;;;;;24.01;51.98;101829.81;5031524;27;97355;-70
2023/09/08 02:43:45;;;;;;;11.43;7.03;;;;;;;23.91;52.07;101828.75;5031778;27;99234;-70
2023/09/08 02:46:12;;;;;;;8.43;7.25;;;;;;;23.81;52.71;101824.06;5029078;27;99057;-70
2023/09/08 02:48:39;;;;;;;13.73;8.15;;;;;;;23.68;53.13;101825.94;5031594;27;97124;-72
2023/09/08 02:51:05;;;;;;;10.15;7.38;;;;;;;23.79;52.94;101822.44;5029913;27;97203;-71
2023/09/08 02:53:33;;;;;;;12.25;7.47;;;;;;;23.65;53.06;101818.06;5030336;27;99763;-71
2023/09/08 02:56:00;;;;;;;11.10;7.03;;;;;;;23.67;53.48;101817.97;5030164;27;98050;-71
2023/09/08 02:58:27;;;;;;;15.07;7.68;;;;;;;23.77;52.91;101814.47;5031234;27;96907;-71
2023/09/08 03:00:54;;;;;;;14.75;7.47;;;;;;;23.78;52.75;101818.88;5032070;27;96810;-70
2023/09/08 03:03:20;;;;;;;12.40;7.93;;;;;;;23.67;53.36;101821.53;5029704;27;98883;-71
2023/09/08 03:05:47;;;;;;;11.80;7.88;;;;;;;23.80;53.02;101811.53;5031622;27;100097;-70
2023/09/08 03:08:13;;;;;;;13.32;7.97;;;;;;;23.60;53.66;101814.00;5031652;27;96884;-71
2023/09/08 03:10:42;;;;;;;11.43;7.80;;;;;;;23.62;53.77;101817.44;5031601;27;97173;-74
2023/09/08 03:13:08;;;;;;;10.43;7.95;;;;;;;23.54;53.65;101812.59;5030685;27;101557;-75
2023/09/08 03:15:35;;;;;;;13.93;8.40;;;;;;;23.24;54.70;101812.06;5031017;27;99029;-74
2023/09/08 03:18:01;;;;;;;14.02;7.75;;;;;;;23.49;54.46;101805.81;5032192;27;97728;-74
2023/09/08 03:20:28;;;;;;;11.80;7.97;;;;;;;23.56;53.89;101801.72;5029367;27;96804;-74
2023/09/08 03:22:55;;;;;;;11.02;7.75;;;;;;;23.48;54.26;101812.19;5031401;27;97896;-74
2023/09/08 03:25:22;;;;;;;11.60;7.88;;;;;;;23.42;54.37;101803.53;5029873;27;101767;-74
2023/09/08 03:27:49;;;;;;;11.38;7.55;;;;;;;23.62;53.79;101802.13;5033723;27;96840;-74
2023/09/08 03:30:16;;;;;;;12.88;7.63;;;;;;;23.29;54.54;101809.94;5029052;27;96828;-74
2023/09/08 03:32:45;;;;;;;13.73;8.02;;;;;;;23.42;54.49;101806.25;5039720;27;99202;-74
2023/09/08 03:35:11;;;;;;;13.07;7.40;;;;;;;23.26;55.12;101812.84;5034446;27;97929;-73
2023/09/08 03:37:38;;;;;;;11.57;8.70;;;;;;;23.38;54.70;101815.50;5034898;27;96947;-73
2023/09/08 03:40:06;;;;;;;12.52;7.93;;;;;;;23.25;55.17;101814.66;5032815;27;98284;-73
2023/09/08 03:42:32;;;;;;;12.75;8.15;;;;;;;23.47;54.23;101813.13;5034598;27;98853;-74
2023/09/08 03:45:00;;;;;;;10.15;7.72;;;;;;;23.10;55.45;101813.09;5031537;27;99214;-73
2023/09/08 03:47:26;;;;;;;13.45;9.00;;;;;;;23.25;55.03;101817.38;5037371;27;96845;-74
2023/09/08 03:49:53;;;;;;;12.77;7.60;;;;;;;22.94;55.95;101820.53;5031161;27;96887;-73
2023/09/08 03:52:19;;;;;;;13.48;8.18;;;;;;;23.07;55.42;101821.38;5035442;27;99178;-74
2023/09/08 03:54:46;;;;;;;12.75;8.52;;;;;;;23.17;55.19;101817.03;5033981;27;98070;-73
2023/09/08 03:57:12;;;;;;;15.82;8.73;;;;;;;23.08;55.61;101816.84;5030125;27;97807;-73
2023/09/08 03:59:38;;;;;;;10.43;7.60;;;;;;;23.00;55.58;101817.38;5032170;27;96996;-73
2023/09/08 04:02:06;;;;;;;19.27;9.30;;;;;;;23.08;55.45;101819.56;5027953;27;99018;-74
2023/09/08 04:04:32;;;;;;;15.93;8.70;;;;;;;23.03;55.78;101822.59;5029946;27;99376;-74
2023/09/08 04:06:59;;;;;;;15.43;8.43;;;;;;;23.18;55.37;101826.84;5030431;27;96854;-74
2023/09/08 04:09:25;;;;;;;13.13;8.38;;;;;;;23.02;56.01;101823.53;5029999;27;97037;-74
2023/09/08 04:11:52;;;;;;;11.82;7.95;;;;;;;23.07;55.74;101829.47;5029126;27;98913;-73
2023/09/08 04:14:18;;;;;;;10.13;8.13;;;;;;;23.16;55.46;101817.19;5028856;27;99206;-73
2023/09/08 04:16:44;;;;;;;17.75;8.52;;;;;;;23.08;55.95;101816.84;5030476;27;97322;-74
2023/09/08 04:19:12;;;;;;;14.63;8.50;;;;;;;23.15;55.52;101819.00;5030570;27;97307;-74
2023/09/08 04:21:38;;;;;;;13.23;8.80;;;;;;;23.02;55.87;101813.63;5025055;27;99152;-74
2023/09/08 04:24:06;;;;;;;17.13;8.48;;;;;;;23.11;55.58;101816.63;5029580;27;98829;-73
2023/09/08 04:26:32;;;;;;;18.65;11.38;;;;;;;23.09;55.76;101824.84;5029175;27;97208;-73
2023/09/08 04:28:59;;;;;;;15.65;9.20;;;;;;;22.99;55.98;101818.34;5027480;27;96818;-73
2023/09/08 04:31:25;;;;;;;13.65;8.77;;;;;;;23.07;55.96;101817.81;5030174;28;97920;-73
2023/09/08 04:33:53;;;;;;;14.00;8.43;;;;;;;22.98;56.18;101827.41;5029167;27;98853;-74
2023/09/08 04:36:20;;;;;;;11.50;8.30;;;;;;;23.06;56.25;101827.75;5028970;27;96803;-74
2023/09/08 04:38:47;;;;;;;11.73;8.20;;;;;;;23.01;56.27;101840.69;5028777;27;96866;-74
2023/09/08 04:41:13;;;;;;;15.13;9.15;;;;;;;23.08;55.90;101827.63;5025109;27;99296;-74
2023/09/08 04:43:39;;;;;;;15.05;8.90;;;;;;;22.72;57.19;101831.03;5030587;27;98927;-73
2023/09/08 04:46:06;;;;;;;14.30;8.70;;;;;;;22.88;56.59;101834.44;5030819;27;96780;-74
2023/09/08 04:48:32;;;;;;;13.30;8.45;;;;;;;22.98;56.37;101832.78;5029842;27;96878;-74
2023/09/08 04:50:58;;;;;;;12.75;8.70;;;;;;;22.95;56.54;101823.13;5028777;27;102058;-73
2023/09/08 04:53:26;;;;;;;13.57;8.85;;;;;;;23.16;55.65;101830.66;5029794;27;98963;-74
2023/09/08 04:55:53;;;;;;;13.38;8.38;;;;;;;23.16;55.53;101834.22;5029613;27;97099;-73
2023/09/08 04:58:19;;;;;;;14.38;8.52;;;;;;;23.16;55.79;101828.81;5028856;27;97313;-73
2023/09/08 05:00:45;;;;;;;11.93;8.55;;;;;;;23.20;55.26;101827.63;5028258;27;99219;-74
2023/09/08 05:03:12;;;;;;;13.48;8.40;;;;;;;23.25;55.18;101829.97;5036419;27;98728;-73
2023/09/08 05:05:39;;;;;;;18.60;8.88;;;;;;;23.19;55.79;101825.91;5029923;27;96800;-73
2023/09/08 05:08:05;;;;;;;11.57;8.65;;;;;;;23.34;55.06;101823.94;5028299;27;97639;-73
2023/09/08 05:10:33;;;;;;;15.23;9.05;;;;;;;23.32;55.21;101836.66;5027205;27;97934;-73
2023/09/08 05:12:59;;;;;;;11.60;8.57;;;;;;;23.32;55.06;101832.13;5029513;27;99614;-71
2023/09/08 05:15:26;;;;;;;14.45;9.13;;;;;;;23.39;54.76;101828.03;5027293;27;98998;-70
2023/09/08 05:17:52;;;;;;;16.17;8.77;;;;;;;23.25;55.21;101838.06;5029824;27;97549;-70
2023/09/08 05:20:19;;;;;;;18.17;9.35;;;;;;;23.35;54.96;101826.53;5028388;27;101849;-70
2023/09/08 05:22:45;;;;;;;16.92;9.18;;;;;;;23.53;54.38;101831.59;5030074;27;98757;-70
2023/09/08 05:25:11;;;;;;;12.32;8.45;;;;;;;23.59;54.07;101831.16;5026207;27;98692;-70
2023/09/08 05:27:39;;;;;;;14.07;8.68;;;;;;;23.47;54.42;101837.41;5032711;27;96908;-70
2023/09/08 05:30:07;;;;;;;15.65;8.95;;;;;;;23.40;54.75;101829.75;5028907;27;101017;-70
2023/09/08 05:32:33;;;;;;;13.55;8.23;;;;;;;23.29;54.87;101828.81;5032408;27;99217;-70
2023/09/08 05:35:00;;;;;;;11.88;8.55;;;;;;;23.37;54.61;101834.50;5027615;27;97028;-70
2023/09/08 05:37:26;;;;;;;18.98;9.63;;;;;;;23.58;54.24;101834.81;5033371;27;96931;-70
2023/09/08 05:39:52;;;;;;;16.83;9.25;;;;;;;23.50;54.37;101834.53;5036141;27;99851;-70
2023/09/08 05:42:19;;;;;;;15.48;9.15;;;;;;;23.55;54.38;101841.31;5033528;27;98255;-70
2023/09/08 05:44:47;;;;;;;15.63;9.18;;;;;;;23.66;53.86;101830.59;5031545;28;96889;-70
2023/09/08 05:47:14;;;;;;;17.95;8.38;;;;;;;23.74;53.70;101841.69;5028611;28;98494;-70
2023/09/08 05:49:40;;;;;;;14.23;8.65;;;;;;;23.94;52.95;101836.66;5030585;27;99545;-70
2023/09/08 05:52:06;;;;;;;16.15;9.13;;;;;;;23.97;52.44;101829.19;5031257;28;99318;-70
2023/09/08 05:54:33;;;;;;;14.38;9.40;;;;;;;24.02;52.88;101843.22;5031510;28;96865;-69
2023/09/08 05:56:59;;;;;;;13.35;8.35;;;;;;;23.90;53.25;101840.53;5029375;27;97191;-70
2023/09/08 05:59:26;;;;;;;17.58;9.07;;;;;;;23.76;53.42;101836.19;5027994;27;98988;-70
2023/09/08 06:01:53;;;;;;;17.17;8.77;;;;;;;23.88;52.94;101835.28;5031503;27;98830;-70
2023/09/08 06:04:20;;;;;;;16.02;8.63;;;;;;;24.05;52.54;101832.16;5031093;27;96876;-71
2023/09/08 06:06:46;;;;;;;12.32;9.07;;;;;;;24.16;52.11;101837.63;5031504;27;97175;-71
2023/09/08 06:09:14;;;;;;;13.57;8.35;;;;;;;24.13;52.08;101834.28;5030034;28;100673;-70
2023/09/08 06:11:41;;;;;;;12.23;8.98;;;;;;;24.25;51.92;101837.94;5029937;27;99184;-70
2023/09/08 06:14:07;;;;;;;14.88;8.98;;;;;;;24.34;51.83;101835.41;5032074;27;97665;-71
2023/09/08 06:16:35;;;;;;;10.32;8.10;;;;;;;24.46;51.42;101837.19;5031767;27;97601;-71
2023/09/08 06:19:03;;;;;;;16.85;7.95;;;;;;;24.49;50.85;101834.22;5030738;27;99875;-71
2023/09/08 06:21:30;;;;;;;14.35;8.75;;;;;;;24.42;50.80;101832.09;5030979;27;99305;-70
2023/09/08 06:23:57;;;;;;;13.80;8.50;;;;;;;24.61;50.54;101838.66;5032486;27;97780;-70
2023/09/08 06:26:23;;;;;;;16.33;8.55;;;;;;;24.81;50.06;101829.00;5032807;27;96874;-71
2023/09/08 06:28:50;;;;;;;13.35;8.20;;;;;;;24.76;50.15;101827.66;5032306;27;98958;-71
2023/09/08 06:31:16;;;;;;;15.32;9.50;;;;;;;24.86;49.80;101826.84;5032888;27;101764;-71
2023/09/08 06:33:42;;;;;;;15.40;8.90;;;;;;;24.81;49.78;101831.72;5032629;27;96927;-71
2023/09/08 06:36:10;;;;;;;14.43;8.05;;;;;;;24.86;49.97;101829.53;5033373;27;96823;-71
2023/09/08 06:38:36;;;;;;;12.85;7.88;;;;;;;25.10;49.17;101828.59;5031457;27;99479;-71
2023/09/08 06:41:09;;;;;;;20.05;9.10;;;;;;;25.01;49.14;101828.34;5032185;27;99414;-71
2023/09/08 06:43:36;;;;;;;17.55;8.52;;;;;;;25.05;49.17;101826.28;5030554;27;96725;-71
2023/09/08 06:46:02;;;;;;;11.75;8.32;;;;;;;25.11;48.93;101830.34;5032222;27;96860;-71
2023/09/08 06:48:30;;;;;;;14.27;8.23;;;;;;;25.24;48.97;101825.66;5025618;27;98996;-71
2023/09/08 06:50:57;;;;;;;15.95;8.55;;;;;;;25.48;48.56;101826.38;5029278;27;97309;-71
2023/09/08 06:53:24;;;;;;;15.90;8.55;;;;;;;25.77;47.30;101819.50;5027957;27;96763;-70
2023/09/08 06:55:51;;;;;;;12.45;8.20;;;;;;;26.01;46.96;101821.13;5031451;27;96966;-71
2023/09/08 06:58:17;;;;;;;15.32;8.50;;;;;;;26.23;46.27;101822.91;5031878;27;97860;-70
2023/09/08 07:00:44;;;;;;;14.93;8.73;;;;;;;26.13;46.09;101820.09;5032678;27;98962;-70
2023/09/08 07:03:10;;;;;;;13.98;8.30;;;;;;;26.26;45.87;101820.81;5033436;27;96767;-70
2023/09/08 07:05:37;;;;;;;19.05;8.65;;;;;;;26.43;45.60;101819.41;5033132;27;97113;-71
2023/09/08 07:08:03;;;;;;;20.45;7.80;;;;;;;26.32;45.97;101825.72;5032311;27;99423;-72
2023/09/08 07:10:31;;;;;;;14.30;8.02;;;;;;;26.39;46.12;101829.63;5031717;27;98900;-71
2023/09/08 07:12:57;;;;;;;20.90;8.35;;;;;;;26.33;45.94;101827.44;5032881;27;96962;-70
2023/09/08 07:15:24;;;;;;;15.30;8.05;;;;;;;26.25;46.47;101832.69;5031939;27;96917;-71
2023/09/08 07:17:50;;;;;;;19.40;8.82;;;;;;;26.69;45.33;101826.16;5026308;27;99328;-71
2023/09/08 07:20:17;;;;;;;11.68;8.75;;;;;;;26.79;45.28;101828.91;5032258;27;99476;-70
2023/09/08 07:22:44;;;;;;;11.18;8.00;;;;;;;26.71;45.16;101828.75;5030646;27;96725;-71
2023/09/08 07:25:10;;;;;;;15.13;8.20;;;;;;;26.64;45.01;101830.25;5028857;27;96823;-70
2023/09/08 07:27:38;;;;;;;12.80;7.75;;;;;;;26.66;44.72;101833.69;5031027;27;99751;-70
2023/09/08 07:30:06;;;;;;;12.90;7.75;;;;;;;26.62;44.92;101822.25;5032165;27;97985;-70
2023/09/08 07:32:32;;;;;;;14.93;7.28;;;;;;;26.87;44.43;101831.81;5024027;27;96942;-71
2023/09/08 07:34:59;;;;;;;14.50;6.93;;;;;;;26.60;45.45;101829.66;5027592;27;96805;-70
2023/09/08 07:37:25;;;;;;;14.30;7.15;;;;;;;27.01;44.39;101828.81;5032378;27;99095;-71
2023/09/08 07:39:52;;;;;;;16.33;7.38;;;;;;;27.10;44.13;101825.31;5031899;27;99078;-71
2023/09/08 07:42:18;;;;;;;14.30;6.88;;;;;;;27.19;43.74;101824.47;5031228;27;97313;-71
2023/09/08 07:44:46;;;;;;;11.60;6.35;;;;;;;27.29;43.23;101829.94;5032140;27;96931;-70
2023/09/08 07:47:13;;;;;;;15.82;7.70;;;;;;;27.32;43.69;101835.09;5027761;27;98925;-71
2023/09/08 07:49:39;;;;;;;13.63;6.93;;;;;;;27.50;42.78;101832.59;5030420;27;101036;-71
2023/09/08 07:52:07;;;;;;;16.40;7.18;;;;;;;27.63;42.15;101844.09;5031843;27;96806;-70
2023/09/08 07:54:33;;;;;;;17.67;7.05;;;;;;;27.91;41.81;101829.72;5032081;27;96806;-73
2023/09/08 07:57:00;;;;;;;12.68;6.85;;;;;;;28.06;41.11;101832.88;5031727;27;99292;-74
2023/09/08 07:59:26;;;;;;;15.10;6.90;;;;;;;28.26;40.95;101841.94;5031737;27;99091;-74
2023/09/08 08:01:54;;;;;;;12.23;6.97;;;;;;;28.34;40.02;101845.69;5026038;27;97599;-74
2023/09/08 08:04:20;;;;;;;13.25;6.72;;;;;;;28.43;40.11;101841.22;5025447;27;100878;-74
2023/09/08 08:06:48;;;;;;;12.88;7.03;;;;;;;28.69;39.87;101849.63;5029225;27;102164;-74
2023/09/08 08:09:14;;;;;;;13.07;6.43;;;;;;;28.98;39.45;101847.78;5029139;27;99067;-72
2023/09/08 08:11:41;;;;;;;12.32;6.60;;;;;;;29.42;38.05;101842.63;5021337;27;97325;-70
2023/09/08 08:14:07;;;;;;;11.32;6.07;;;;;;;29.60;37.66;101847.09;5030163;27;98596;-71
2023/09/08 08:16:34;;;;;;;8.85;6.32;;;;;;;29.58;38.04;101838.25;5030101;27;98030;-70
2023/09/08 08:19:03;;;;;;;12.50;5.95;;;;;;;29.45;38.48;101834.16;5035090;27;102588;-70
2023/09/08 08:21:29;;;;;;;11.25;6.80;;;;;;;29.68;38.06;101833.59;5024447;27;96679;-70
2023/09/08 08:23:56;;;;;;;9.60;6.05;;;;;;;29.60;37.80;101832.66;5028962;27;96811;-70
2023/09/08 08:26:27;;;;;;;14.15;6.47;;;;;;;29.66;38.17;101835.63;5034226;27;99502;-70
2023/09/08 08:28:53;;;;;;;11.75;6.00;;;;;;;29.63;37.76;101832.34;5022546;27;98932;-70
2023/09/08 08:31:20;;;;;;;14.38;6.25;;;;;;;29.62;37.41;101823.31;5026220;27;97139;-71
2023/09/08 08:33:46;;;;;;;12.13;6.05;;;;;;;29.53;36.96;101826.97;5015235;27;96899;-71
2023/09/08 08:36:15;;;;;;;9.77;5.82;;;;;;;29.64;37.40;101821.31;5025636;27;99426;-71
2023/09/08 08:38:41;;;;;;;16.08;6.22;;;;;;;29.57;37.18;101825.63;5027291;27;99120;-71
2023/09/08 08:41:08;;;;;;;11.32;7.43;;;;;;;29.50;37.61;101819.09;5028287;27;97339;-70
2023/09/08 08:43:34;;;;;;;12.57;6.38;;;;;;;29.73;37.54;101823.09;5028762;27;96784;-71
2023/09/08 08:46:02;;;;;;;12.95;6.10;;;;;;;30.05;36.97;101819.06;5029244;27;97903;-71
2023/09/08 08:48:30;;;;;;;9.80;6.40;;;;;;;30.00;36.58;101824.09;5028086;27;99364;-71
2023/09/08 08:50:57;;;;;;;11.20;5.93;;;;;;;30.01;35.99;101825.81;5019795;27;96746;-71
2023/09/08 08:53:26;;;;;;;16.08;6.03;;;;;;;29.79;36.86;101815.34;5025086;27;97120;-71
2023/09/08 08:55:55;;;;;;;17.23;6.30;;;;;;;29.65;37.04;101811.25;5022314;27;98441;-71
2023/09/08 08:58:25;;;;;;;10.07;5.93;;;;;;;29.88;36.44;101811.66;5026680;27;98960;-70
2023/09/08 09:00:53;;;;;;;11.40;5.78;;;;;;;30.00;36.54;101815.91;5021294;27;96808;-71
2023/09/08 09:03:21;;;;;;;9.27;5.93;;;;;;;30.02;36.55;101813.91;5027941;27;96884;-71
2023/09/08 09:05:47;;;;;;;14.52;5.85;;;;;;;29.83;37.03;101808.56;5030388;27;99059;-71
2023/09/08 09:08:15;;;;;;;14.55;6.22;;;;;;;29.90;36.38;101809.66;5028620;27;99035;-71
2023/09/08 09:10:43;;;;;;;11.38;5.93;;;;;;;30.06;36.13;101815.31;5030331;27;96896;-70
2023/09/08 09:13:09;;;;;;;11.20;5.63;;;;;;;29.70;36.44;101815.25;5032966;27;97340;-71
2023/09/08 09:15:36;;;;;;;10.70;6.20;;;;;;;30.26;36.01;101816.84;5031978;27;99363;-70
2023/09/08 09:18:03;;;;;;;10.73;5.25;;;;;;;30.49;35.34;101806.34;5029873;27;98778;-71
2023/09/08 09:20:30;;;;;;;9.60;5.55;;;;;;;30.30;35.46;101812.81;5028404;27;96808;-73
2023/09/08 09:22:56;;;;;;;8.90;6.30;;;;;;;30.16;35.82;101810.63;5030730;27;96818;-73
2023/09/08 09:25:24;;;;;;;9.05;6.10;;;;;;;30.34;35.84;101806.03;5031686;27;100496;-74
2023/09/08 09:27:54;;;;;;;11.73;5.53;;;;;;;30.74;35.10;101812.84;5034104;27;98205;-74
2023/09/08 09:30:20;;;;;;;10.48;6.00;;;;;;;30.61;35.62;101804.22;5031534;27;97230;-75
2023/09/08 09:32:49;;;;;;;8.15;5.50;;;;;;;30.80;34.99;101815.78;5027780;27;96931;-74
2023/09/08 09:35:15;;;;;;;8.02;5.47;;;;;;;30.74;35.13;101804.66;5031663;27;99062;-74
2023/09/08 09:37:42;;;;;;;15.32;5.45;;;;;;;30.79;34.97;101810.50;5032503;27;98968;-73
2023/09/08 09:40:10;;;;;;;12.15;5.45;;;;;;;30.62;35.14;101805.94;5031145;27;97214;-73
2023/09/08 09:42:39;;;;;;;7.53;5.22;;;;;;;30.54;35.00;101803.16;5025233;27;97707;-74
2023/09/08 09:45:08;;;;;;;11.45;5.65;;;;;;;30.42;35.36;101799.78;5029398;27;98532;-74
2023/09/08 09:47:35;;;;;;;13.60;5.80;;;;;;;30.66;35.31;101793.69;5031013;27;98823;-74
2023/09/08 09:50:02;;;;;;;15.02;5.85;;;;;;;31.10;34.85;101792.66;5031002;27;96768;-74
2023/09/08 09:52:31;;;;;;;13.55;6.53;;;;;;;30.99;34.58;101795.59;5031898;27;97283;-73
2023/09/08 09:54:59;;;;;;;12.55;6.00;;;;;;;30.95;34.67;101791.50;5029863;27;98947;-74
2023/09/08 09:57:26;;;;;;;10.35;5.35;;;;;;;30.99;35.10;101792.03;5032106;27;98161;-74
2023/09/08 09:59:54;;;;;;;12.68;5.93;;;;;;;30.77;35.14;101797.03;5027065;27;97471;-75
2023/09/08 10:02:22;;;;;;;14.55;5.43;;;;;;;30.93;34.62;101788.06;5032816;27;96928;-74
2023/09/08 10:04:50;;;;;;;7.60;5.13;;;;;;;30.87;34.43;101791.44;5031492;27;98963;-76
2023/09/08 10:07:17;;;;;;;8.98;5.72;;;;;;;31.15;34.24;101790.28;5032707;27;98763;-71
2023/09/08 10:09:44;;;;;;;11.13;5.43;;;;;;;31.13;34.28;101788.72;5025220;27;97425;-70
2023/09/08 10:12:15;;;;;;;11.50;5.50;;;;;;;31.13;33.61;101781.38;5031542;27;96955;-70
2023/09/08 10:14:42;;;;;;;7.90;5.63;;;;;;;31.24;33.94;101783.81;5025313;27;100965;-70
2023/09/08 10:17:16;;;;;;;9.52;5.38;;;;;;;31.52;33.50;101780.84;5031543;27;98760;-70
2023/09/08 10:19:48;;;;;;;8.80;5.22;;;;;;;31.28;33.93;101778.91;5028823;27;98411;-70
2023/09/08 10:22:20;;;;;;;14.45;5.60;;;;;;;31.12;33.60;101781.53;5031129;27;96848;-71
2023/09/08 10:24:47;;;;;;;11.48;5.10;;;;;;;31.16;33.70;101772.88;5030866;27;101603;-75
2023/09/08 10:27:14;;;;;;;11.63;4.78;;;;;;;31.16;33.63;101770.16;5028824;27;97529;-75
2023/09/08 10:29:40;;;;;;;9.48;4.57;;;;;;;31.23;33.72;101782.13;5029764;27;96766;-73
2023/09/08 10:32:08;;;;;;;8.02;4.72;;;;;;;31.22;33.64;101768.63;5031624;27;96846;-73
2023/09/08 10:34:37;;;;;;;7.65;5.20;;;;;;;31.03;33.78;101772.44;5023734;27;99137;-73
2023/09/08 10:37:19;;;;;;;7.80;4.85;;;;;;;31.19;33.80;101764.34;5031647;27;99447;-74
2023/09/08 10:39:46;;;;;;;10.55;5.35;;;;;;;31.37;33.66;101768.88;5030929;27;96868;-75
2023/09/08 10:42:25;;;;;;;8.13;4.55;;;;;;;31.39;32.89;101758.63;5032865;27;97059;-75
2023/09/08 10:45:04;;;;;;;8.70;5.30;;;;;;;31.41;33.36;101759.31;5031516;27;98903;-74
2023/09/08 10:47:55;;;;;;;6.97;5.10;;;;;;;31.60;32.78;101757.19;5027939;27;102581;-75
2023/09/08 10:50:28;;;;;;;8.55;4.68;;;;;;;31.55;32.58;101750.50;5022088;27;96976;-74
2023/09/08 10:53:07;;;;;;;7.22;4.68;;;;;;;31.55;32.89;101756.81;5031681;27;96807;-74
2023/09/08 10:55:40;;;;;;;9.38;5.18;;;;;;;31.42;32.98;101758.31;5024569;27;97827;-74
2023/09/08 10:58:07;;;;;;;8.43;5.25;;;;;;;31.43;33.44;101763.59;5027375;27;99324;-75
2023/09/08 11:00:48;;;;;;;8.90;5.68;;;;;;;31.46;33.51;101751.47;5029451;27;96791;-75
2023/09/08 11:03:28;;;;;;;9.95;5.40;;;;;;;31.53;33.23;101758.84;5026433;27;96803;-74
2023/09/08 11:05:55;;;;;;;14.50;4.68;;;;;;;31.58;33.08;101753.72;5030831;27;98781;-74
2023/09/08 11:08:23;;;;;;;13.00;4.50;;;;;;;31.47;32.89;101745.00;5031407;27;98985;-75
2023/09/08 11:10:50;;;;;;;7.10;4.97;;;;;;;31.39;32.47;101747.69;5033260;27;96956;-74
2023/09/08 11:13:17;;;;;;;7.55;4.28;;;;;;;31.51;32.35;101739.03;5031475;27;96923;-75
2023/09/08 11:15:43;;;;;;;11.18;5.03;;;;;;;31.43;32.44;101746.38;5031997;27;97890;-74
2023/09/08 11:18:10;;;;;;;11.10;5.43;;;;;;;31.54;32.71;101743.31;5030768;27;98749;-74
2023/09/08 11:20:36;;;;;;;11.98;4.68;;;;;;;31.49;32.85;101745.69;5028880;27;97155;-74
2023/09/08 11:23:05;;;;;;;9.85;4.70;;;;;;;31.35;32.27;101743.59;5030942;27;97239;-74